createdAt,value
2019-02-15T00:00:33.997Z,2.30
2019-02-15T00:02:42.187Z,2.40
2019-02-15T00:04:49.174Z,2.30
2019-02-15T00:06:52.877Z,2.30
2019-02-15T00:08:56.676Z,2.40
2019-02-15T00:11:00.132Z,2.30
2019-02-15T00:13:03.641Z,2.30
2019-02-15T00:15:07.172Z,2.20
2019-02-15T00:17:10.661Z,2.20
2019-02-15T00:19:19.161Z,2.20
2019-02-15T00:21:26.162Z,2.10
2019-02-15T00:23:29.610Z,2.20
2019-02-15T00:25:33.068Z,2.10
2019-02-15T00:27:36.505Z,2.20
2019-02-15T00:29:40.036Z,2.10
2019-02-15T00:31:45.164Z,2.10
2019-02-15T00:33:48.620Z,2.10
2019-02-15T00:35:52.969Z,2.10
2019-02-15T00:37:56.432Z,2.10
2019-02-15T00:39:59.888Z,2.10
2019-02-15T00:42:03.336Z,2.10
2019-02-15T00:44:06.825Z,2.00
2019-02-15T00:47:14.037Z,2.00
2019-02-15T00:49:53.091Z,2.00
2019-02-15T00:52:04.576Z,2.00
2019-02-15T00:56:15.650Z,1.90
2019-02-15T00:58:56.834Z,1.90
2019-02-15T01:01:05.488Z,1.90
2019-02-15T01:03:23.246Z,1.90
2019-02-15T01:05:34.679Z,1.80
2019-02-15T01:07:43.333Z,1.80
2019-02-15T01:09:52.776Z,1.80
2019-02-15T01:12:08.184Z,1.80
2019-02-15T01:14:11.686Z,1.80
2019-02-15T01:16:15.128Z,1.90
2019-02-15T01:18:18.624Z,1.90
2019-02-15T01:20:22.994Z,1.80
2019-02-15T01:22:27.455Z,1.80
2019-02-15T01:24:31.878Z,1.80
2019-02-15T01:26:39.733Z,1.80
2019-02-15T01:28:48.300Z,1.80
2019-02-15T01:30:58.812Z,1.80
2019-02-15T01:33:15.357Z,1.80
2019-02-15T01:35:28.843Z,1.80
2019-02-15T01:37:38.221Z,1.80
2019-02-15T01:39:48.625Z,1.80
2019-02-15T01:42:30.601Z,1.80
2019-02-15T01:44:39.134Z,1.80
2019-02-15T01:46:49.483Z,1.80
2019-02-15T01:48:53.855Z,1.70
2019-02-15T01:50:58.252Z,1.70
2019-02-15T01:53:02.660Z,1.70
2019-02-15T01:55:07.178Z,1.70
2019-02-15T01:57:11.565Z,1.70
2019-02-15T01:59:16.011Z,1.70
2019-02-15T02:01:23.004Z,1.70
2019-02-15T02:03:27.418Z,1.70
2019-02-15T02:05:31.766Z,1.70
2019-02-15T02:07:36.225Z,1.60
2019-02-15T02:09:40.637Z,1.60
2019-02-15T02:11:44.990Z,1.60
2019-02-15T02:13:50.013Z,1.60
2019-02-15T02:15:53.801Z,1.60
2019-02-15T02:17:58.251Z,1.60
2019-02-15T02:20:02.702Z,1.60
2019-02-15T02:22:07.081Z,1.60
2019-02-15T02:24:11.471Z,1.50
2019-02-15T02:26:15.942Z,1.50
2019-02-15T02:28:20.352Z,1.50
2019-02-15T02:30:24.766Z,1.50
2019-02-15T02:32:29.215Z,1.50
2019-02-15T02:34:33.582Z,1.50
2019-02-15T02:36:48.514Z,1.50
2019-02-15T02:38:52.882Z,1.50
2019-02-15T02:40:57.280Z,1.50
2019-02-15T02:43:01.723Z,1.40
2019-02-15T02:45:06.398Z,1.40
2019-02-15T02:47:10.782Z,1.40
2019-02-15T02:49:15.188Z,1.40
2019-02-15T02:51:19.628Z,1.40
2019-02-15T02:53:24.013Z,1.40
2019-02-15T02:55:28.428Z,1.40
2019-02-15T02:57:32.849Z,1.30
2019-02-15T02:59:37.235Z,1.30
2019-02-15T03:01:41.610Z,1.30
2019-02-15T03:03:45.994Z,1.30
2019-02-15T03:05:50.463Z,1.20
2019-02-15T03:07:54.865Z,1.20
2019-02-15T03:09:59.313Z,1.20
2019-02-15T03:12:03.831Z,1.20
2019-02-15T03:14:11.547Z,1.20
2019-02-15T03:16:12.614Z,1.20
2019-02-15T03:18:16.966Z,1.20
2019-02-15T03:20:30.986Z,1.20
2019-02-15T03:22:25.847Z,1.20
2019-02-15T03:24:30.251Z,1.20
2019-02-15T03:26:34.579Z,1.20
2019-02-15T03:28:39.944Z,1.20
2019-02-15T03:30:44.398Z,1.20
2019-02-15T03:32:48.857Z,1.30
2019-02-15T03:34:53.282Z,1.20
2019-02-15T03:37:02.692Z,1.20
2019-02-15T03:39:15.403Z,1.20
2019-02-15T03:41:25.101Z,1.20
2019-02-15T03:43:29.587Z,1.20
2019-02-15T03:45:33.981Z,1.20
2019-02-15T03:47:38.351Z,1.20
2019-02-15T03:49:42.734Z,1.20
2019-02-15T03:51:47.125Z,1.20
2019-02-15T03:53:51.517Z,1.10
2019-02-15T03:55:56.042Z,1.10
2019-02-15T03:58:00.481Z,1.10
2019-02-15T04:00:05.237Z,1.00
2019-02-15T04:02:09.651Z,1.10
2019-02-15T04:04:14.064Z,1.00
2019-02-15T04:06:18.482Z,1.00
2019-02-15T04:08:22.878Z,1.00
2019-02-15T04:10:27.428Z,1.00
2019-02-15T04:12:32.410Z,1.00
2019-02-15T04:14:36.307Z,1.00
2019-02-15T04:16:40.669Z,0.90
2019-02-15T04:18:45.104Z,0.90
2019-02-15T04:20:49.464Z,0.90
2019-02-15T04:22:53.904Z,0.90
2019-02-15T04:24:58.312Z,0.90
2019-02-15T04:27:02.723Z,0.90
2019-02-15T04:29:07.291Z,0.80
2019-02-15T04:31:11.743Z,0.90
2019-02-15T04:33:16.129Z,0.90
2019-02-15T04:35:20.638Z,0.90
2019-02-15T04:37:25.008Z,0.80
2019-02-15T04:39:29.498Z,0.80
2019-02-15T04:41:34.091Z,0.80
2019-02-15T04:43:38.509Z,0.80
2019-02-15T04:45:42.899Z,0.80
2019-02-15T04:47:47.331Z,0.80
2019-02-15T04:49:51.770Z,0.80
2019-02-15T04:51:56.174Z,0.80
2019-02-15T04:54:00.602Z,0.80
2019-02-15T04:56:05.118Z,0.80
2019-02-15T04:58:09.555Z,0.80
2019-02-15T05:00:14.725Z,0.80
2019-02-15T05:02:19.180Z,0.80
2019-02-15T05:04:23.550Z,0.80
2019-02-15T05:06:28.040Z,0.80
2019-02-15T05:08:32.547Z,0.80
2019-02-15T05:10:36.975Z,0.80
2019-02-15T05:12:41.435Z,0.80
2019-02-15T05:14:52.736Z,0.70
2019-02-15T05:16:50.345Z,0.70
2019-02-15T05:18:54.789Z,0.70
2019-02-15T05:20:59.192Z,0.70
2019-02-15T05:23:03.582Z,0.70
2019-02-15T05:25:08.080Z,0.70
2019-02-15T05:27:12.510Z,0.70
2019-02-15T05:29:16.915Z,0.70
2019-02-15T05:31:21.278Z,0.70
2019-02-15T05:33:25.709Z,0.70
2019-02-15T05:35:30.210Z,0.70
2019-02-15T05:37:34.723Z,0.60
2019-02-15T05:39:39.122Z,0.70
2019-02-15T05:41:43.606Z,0.70
2019-02-15T05:43:48.065Z,0.70
2019-02-15T05:45:52.438Z,0.60
2019-02-15T05:47:57.543Z,0.70
2019-02-15T05:50:01.962Z,0.70
2019-02-15T05:52:06.350Z,0.60
2019-02-15T05:54:10.823Z,0.60
2019-02-15T05:56:15.211Z,0.60
2019-02-15T05:58:19.584Z,0.60
2019-02-15T06:00:24.006Z,0.70
2019-02-15T06:02:28.402Z,0.70
2019-02-15T06:04:32.828Z,0.60
2019-02-15T06:06:37.372Z,0.60
2019-02-15T06:08:42.507Z,0.60
2019-02-15T06:10:47.307Z,0.60
2019-02-15T06:12:51.195Z,0.60
2019-02-15T06:14:55.661Z,0.60
2019-02-15T06:17:01.730Z,0.60
2019-02-15T06:19:04.670Z,0.60
2019-02-15T06:21:09.168Z,0.60
2019-02-15T06:23:13.567Z,0.60
2019-02-15T06:25:17.949Z,0.60
2019-02-15T06:27:22.333Z,0.60
2019-02-15T06:29:26.752Z,0.50
2019-02-15T06:31:31.134Z,0.50
2019-02-15T06:33:35.590Z,0.60
2019-02-15T06:35:40.042Z,0.50
2019-02-15T06:37:44.419Z,0.50
2019-02-15T06:39:49.047Z,0.50
2019-02-15T06:41:53.326Z,0.50
2019-02-15T06:43:57.686Z,0.50
2019-02-15T06:46:02.127Z,0.50
2019-02-15T06:48:06.535Z,0.50
2019-02-15T06:50:10.960Z,0.50
2019-02-15T06:52:15.349Z,0.50
2019-02-15T06:54:19.762Z,0.50
2019-02-15T06:56:24.202Z,0.50
2019-02-15T06:58:28.644Z,0.50
2019-02-15T07:00:44.173Z,0.50
2019-02-15T07:03:12.131Z,0.50
2019-02-15T07:05:26.559Z,0.50
2019-02-15T07:07:35.659Z,0.50
2019-02-15T07:09:40.176Z,0.50
2019-02-15T07:11:44.695Z,0.50
2019-02-15T07:13:49.189Z,0.50
2019-02-15T07:15:53.554Z,0.50
2019-02-15T07:17:57.980Z,0.60
2019-02-15T07:20:02.388Z,0.60
2019-02-15T07:22:07.422Z,0.60
2019-02-15T07:24:11.867Z,0.60
2019-02-15T07:26:16.254Z,0.60
2019-02-15T07:28:20.669Z,0.60
2019-02-15T07:30:25.219Z,0.60
2019-02-15T07:32:29.755Z,0.70
2019-02-15T07:34:34.155Z,0.70
2019-02-15T07:36:38.600Z,0.70
2019-02-15T07:38:43.017Z,0.70
2019-02-15T07:40:47.536Z,0.70
2019-02-15T07:42:51.934Z,0.80
2019-02-15T07:44:56.290Z,0.80
2019-02-15T07:47:00.720Z,0.90
2019-02-15T07:49:05.112Z,0.80
2019-02-15T07:51:10.077Z,0.80
2019-02-15T07:53:13.938Z,0.90
2019-02-15T07:55:18.418Z,0.90
2019-02-15T07:57:23.121Z,0.90
2019-02-15T07:59:27.525Z,1.00
2019-02-15T08:01:31.927Z,1.00
2019-02-15T08:03:36.296Z,1.10
2019-02-15T08:05:40.667Z,1.10
2019-02-15T08:07:45.093Z,1.10
2019-02-15T08:09:49.551Z,1.20
2019-02-15T08:11:53.964Z,1.20
2019-02-15T08:13:58.360Z,1.30
2019-02-15T08:16:02.995Z,1.30
2019-02-15T08:18:07.202Z,1.30
2019-02-15T08:20:11.840Z,1.40
2019-02-15T08:22:16.233Z,1.40
2019-02-15T08:24:20.617Z,1.40
2019-02-15T08:26:25.064Z,1.50
2019-02-15T08:28:29.434Z,1.50
2019-02-15T08:30:33.846Z,1.60
2019-02-15T08:32:38.332Z,1.70
2019-02-15T08:34:42.739Z,1.70
2019-02-15T08:36:47.269Z,1.80
2019-02-15T08:38:51.687Z,1.90
2019-02-15T08:40:56.156Z,2.00
2019-02-15T08:43:00.529Z,2.00
2019-02-15T08:45:05.706Z,2.10
2019-02-15T08:47:10.132Z,2.20
2019-02-15T08:49:14.513Z,2.30
2019-02-15T08:51:18.893Z,2.40
2019-02-15T08:53:23.362Z,2.50
2019-02-15T08:55:27.812Z,2.60
2019-02-15T08:57:32.148Z,2.70
2019-02-15T08:59:36.538Z,2.80
2019-02-15T09:01:40.914Z,2.90
2019-02-15T09:03:45.372Z,3.00
2019-02-15T09:05:49.810Z,3.10
2019-02-15T09:07:54.300Z,3.30
2019-02-15T09:09:58.668Z,3.40
2019-02-15T09:12:03.089Z,3.50
2019-02-15T09:14:07.469Z,3.60
2019-02-15T09:16:11.850Z,3.80
2019-02-15T09:18:16.267Z,3.90
2019-02-15T09:20:20.738Z,4.10
2019-02-15T09:22:25.115Z,4.10
2019-02-15T09:24:29.498Z,4.30
2019-02-15T09:26:33.923Z,4.30
2019-02-15T09:28:42.243Z,4.50
2019-02-15T09:30:50.695Z,4.60
2019-02-15T09:32:55.104Z,4.80
2019-02-15T09:34:59.474Z,4.90
2019-02-15T09:37:03.856Z,5.00
2019-02-15T09:39:08.579Z,5.20
2019-02-15T09:41:12.998Z,5.30
2019-02-15T09:43:17.383Z,5.40
2019-02-15T09:45:21.782Z,5.60
2019-02-15T09:47:26.226Z,5.70
2019-02-15T09:49:30.618Z,5.80
2019-02-15T09:51:35.071Z,6.00
2019-02-15T09:53:39.478Z,6.10
2019-02-15T09:55:43.895Z,6.20
2019-02-15T09:57:48.286Z,6.30
2019-02-15T09:59:52.706Z,6.50
2019-02-15T10:01:57.149Z,6.60
2019-02-15T10:04:01.571Z,6.70
2019-02-15T10:06:06.025Z,6.90
2019-02-15T10:08:10.370Z,6.90
2019-02-15T10:10:14.915Z,7.00
2019-02-15T10:12:19.474Z,7.20
2019-02-15T10:14:23.965Z,7.30
2019-02-15T10:16:31.192Z,7.40
2019-02-15T10:18:32.753Z,7.50
2019-02-15T10:20:37.167Z,7.60
2019-02-15T10:22:41.551Z,7.80
2019-02-15T10:24:49.269Z,7.80
2019-02-15T10:26:53.686Z,8.00
2019-02-15T10:28:58.141Z,8.20
2019-02-15T10:31:02.618Z,8.30
2019-02-15T10:33:07.001Z,8.40
2019-02-15T10:35:11.545Z,8.50
2019-02-15T10:37:15.928Z,8.60
2019-02-15T10:39:20.345Z,8.80
2019-02-15T10:41:24.750Z,8.90
2019-02-15T10:43:29.202Z,9.00
2019-02-15T10:45:33.835Z,9.10
2019-02-15T10:47:38.198Z,9.20
2019-02-15T10:49:42.617Z,9.40
2019-02-15T10:51:47.031Z,9.50
2019-02-15T10:53:51.380Z,9.70
2019-02-15T10:55:55.717Z,9.80
2019-02-15T10:58:00.111Z,9.90
2019-02-15T11:00:05.767Z,10.10
2019-02-15T11:02:10.362Z,10.20
2019-02-15T11:04:15.632Z,10.30
2019-02-15T11:06:20.533Z,10.50
2019-02-15T11:08:24.873Z,10.50
2019-02-15T11:10:29.396Z,10.60
2019-02-15T11:12:33.763Z,10.70
2019-02-15T11:14:38.170Z,10.80
2019-02-15T11:16:47.236Z,10.80
2019-02-15T11:18:47.659Z,10.90
2019-02-15T11:20:52.066Z,11.00
2019-02-15T11:22:56.497Z,11.10
2019-02-15T11:25:00.869Z,11.20
2019-02-15T11:27:05.362Z,11.40
2019-02-15T11:29:09.787Z,11.50
2019-02-15T11:31:14.255Z,11.60
2019-02-15T11:33:19.691Z,11.70
2019-02-15T11:35:24.354Z,11.80
2019-02-15T11:37:29.470Z,11.80
2019-02-15T11:39:34.184Z,11.90
2019-02-15T11:41:38.659Z,12.00
2019-02-15T11:43:43.024Z,12.10
2019-02-15T11:45:47.415Z,12.30
2019-02-15T11:47:51.805Z,12.30
2019-02-15T11:49:56.216Z,12.40
2019-02-15T11:52:00.583Z,12.50
2019-02-15T11:54:05.141Z,12.60
2019-02-15T11:56:09.613Z,12.70
2019-02-15T11:58:14.027Z,12.70
2019-02-15T12:00:23.078Z,12.80
2019-02-15T12:02:25.346Z,12.90
2019-02-15T12:04:29.690Z,13.00
2019-02-15T12:06:34.063Z,13.10
2019-02-15T12:08:38.468Z,13.20
2019-02-15T12:10:43.007Z,13.30
2019-02-15T12:12:47.434Z,13.30
2019-02-15T12:14:51.837Z,13.40
2019-02-15T12:17:05.262Z,13.50
2019-02-15T12:19:00.778Z,13.60
2019-02-15T12:21:05.231Z,13.70
2019-02-15T12:23:09.665Z,13.80
2019-02-15T12:25:14.065Z,13.90
2019-02-15T12:27:18.463Z,14.00
2019-02-15T12:29:22.884Z,14.00
2019-02-15T12:31:27.303Z,14.10
2019-02-15T12:33:31.662Z,14.30
2019-02-15T12:35:36.084Z,14.40
2019-02-15T12:37:40.588Z,14.50
2019-02-15T12:39:45.072Z,14.60
2019-02-15T12:41:49.483Z,14.70
2019-02-15T12:43:53.869Z,14.90
2019-02-15T12:45:58.242Z,14.90
2019-02-15T12:48:02.632Z,15.00
2019-02-15T12:50:09.710Z,15.10
2019-02-15T12:52:14.184Z,15.20
2019-02-15T12:54:18.877Z,15.30
2019-02-15T12:56:23.310Z,15.40
2019-02-15T12:58:27.695Z,15.40
2019-02-15T13:00:33.252Z,15.40
2019-02-15T13:02:36.585Z,15.50
2019-02-15T13:04:41.513Z,15.50
2019-02-15T13:06:46.950Z,15.60
2019-02-15T13:08:51.139Z,15.70
2019-02-15T13:10:55.551Z,15.70
2019-02-15T13:13:00.081Z,15.80
2019-02-15T13:15:04.631Z,15.90
2019-02-15T13:17:09.090Z,16.00
2019-02-15T13:19:13.624Z,16.10
2019-02-15T13:21:18.030Z,16.10
2019-02-15T13:23:22.518Z,16.10
2019-02-15T13:25:34.967Z,16.20
2019-02-15T13:27:31.375Z,16.30
2019-02-15T13:29:35.787Z,16.30
2019-02-15T13:31:40.596Z,16.40
2019-02-15T13:33:45.064Z,16.40
2019-02-15T13:35:49.585Z,16.50
2019-02-15T13:37:54.101Z,16.60
2019-02-15T13:39:58.551Z,16.70
2019-02-15T13:42:03.610Z,16.70
2019-02-15T13:44:08.035Z,16.70
2019-02-15T13:46:12.432Z,16.70
2019-02-15T13:48:16.871Z,16.80
2019-02-15T13:50:21.925Z,16.90
2019-02-15T13:52:26.314Z,16.90
2019-02-15T13:54:30.747Z,17.00
2019-02-15T13:56:35.156Z,17.00
2019-02-15T13:58:39.551Z,17.10
2019-02-15T14:00:44.872Z,17.00
2019-02-15T14:02:49.279Z,17.10
2019-02-15T14:04:53.732Z,17.20
2019-02-15T14:06:58.400Z,17.20
2019-02-15T14:09:02.974Z,17.30
2019-02-15T14:11:07.366Z,17.30
2019-02-15T14:13:11.827Z,17.40
2019-02-15T14:15:16.231Z,17.40
2019-02-15T14:17:20.765Z,17.50
2019-02-15T14:19:25.281Z,17.50
2019-02-15T14:21:29.684Z,17.60
2019-02-15T14:23:34.170Z,17.70
2019-02-15T14:25:38.576Z,17.70
2019-02-15T14:27:43.057Z,17.70
2019-02-15T14:29:47.404Z,17.70
2019-02-15T14:31:52.514Z,17.80
2019-02-15T14:33:56.928Z,17.80
2019-02-15T14:36:01.494Z,17.80
2019-02-15T14:38:06.081Z,17.80
2019-02-15T14:40:10.733Z,17.90
2019-02-15T14:42:15.122Z,17.90
2019-02-15T14:44:19.521Z,17.90
2019-02-15T14:46:24.033Z,17.90
2019-02-15T14:48:28.401Z,17.90
2019-02-15T14:50:32.793Z,18.00
2019-02-15T14:52:37.210Z,18.00
2019-02-15T14:54:41.594Z,18.00
2019-02-15T14:56:45.994Z,18.10
2019-02-15T14:58:50.451Z,18.20
2019-02-15T15:00:54.824Z,18.20
2019-02-15T15:02:59.188Z,18.30
2019-02-15T15:05:03.780Z,18.30
2019-02-15T15:07:08.169Z,18.50
2019-02-15T15:09:12.623Z,18.70
2019-02-15T15:11:17.060Z,18.80
2019-02-15T15:13:21.882Z,19.10
2019-02-15T15:15:26.355Z,19.40
2019-02-15T15:17:30.792Z,19.50
2019-02-15T15:19:35.605Z,19.80
2019-02-15T15:21:40.018Z,20.00
2019-02-15T15:23:44.642Z,20.10
2019-02-15T15:25:49.017Z,20.10
2019-02-15T15:27:53.427Z,20.10
2019-02-15T15:29:57.844Z,20.00
2019-02-15T15:32:02.289Z,20.00
2019-02-15T15:34:07.062Z,19.90
2019-02-15T15:36:11.537Z,19.80
2019-02-15T15:38:17.295Z,19.80
2019-02-15T15:40:22.136Z,19.80
2019-02-15T15:42:26.558Z,19.70
2019-02-15T15:44:31.002Z,19.70
2019-02-15T15:46:35.444Z,19.60
2019-02-15T15:48:39.890Z,19.40
2019-02-15T15:50:44.340Z,19.20
2019-02-15T15:52:49.495Z,18.90
2019-02-15T15:54:53.850Z,18.70
2019-02-15T15:56:58.261Z,18.50
2019-02-15T15:59:02.776Z,18.30
2019-02-15T16:01:07.362Z,18.00
2019-02-15T16:03:11.771Z,17.80
2019-02-15T16:05:16.200Z,17.70
2019-02-15T16:07:20.602Z,17.50
2019-02-15T16:09:25.027Z,17.30
2019-02-15T16:11:29.384Z,17.10
2019-02-15T16:13:33.734Z,17.00
2019-02-15T16:15:38.112Z,16.80
2019-02-15T16:17:42.870Z,16.70
2019-02-15T16:19:49.330Z,16.60
2019-02-15T16:21:51.846Z,16.40
2019-02-15T16:23:56.219Z,16.30
2019-02-15T16:26:01.456Z,16.20
2019-02-15T16:28:06.017Z,16.00
2019-02-15T16:30:11.493Z,16.00
2019-02-15T16:32:15.881Z,15.90
2019-02-15T16:34:20.302Z,15.80
2019-02-15T16:36:24.811Z,15.70
2019-02-15T16:38:29.177Z,15.60
2019-02-15T16:40:33.573Z,15.50
2019-02-15T16:42:37.993Z,15.40
2019-02-15T16:44:42.491Z,15.40
2019-02-15T16:46:47.314Z,15.30
2019-02-15T16:48:51.822Z,15.20
2019-02-15T16:50:56.210Z,15.20
2019-02-15T16:53:00.594Z,15.10
2019-02-15T16:55:12.392Z,15.00
2019-02-15T16:57:09.554Z,15.00
2019-02-15T16:59:13.999Z,14.90
2019-02-15T17:01:18.373Z,14.90
2019-02-15T17:03:22.778Z,14.70
2019-02-15T17:05:27.226Z,14.60
2019-02-15T17:07:31.602Z,14.50
2019-02-15T17:09:36.130Z,14.50
2019-02-15T17:11:40.546Z,14.40
2019-02-15T17:13:45.062Z,14.30
2019-02-15T17:15:49.465Z,14.20
2019-02-15T17:17:53.907Z,14.20
2019-02-15T17:19:58.332Z,14.10
2019-02-15T17:22:02.879Z,14.10
2019-02-15T17:24:08.579Z,14.00
2019-02-15T17:26:12.965Z,14.00
2019-02-15T17:28:17.367Z,13.90
2019-02-15T17:30:23.390Z,13.80
2019-02-15T17:32:27.757Z,13.80
2019-02-15T17:34:32.154Z,13.80
2019-02-15T17:36:36.602Z,13.80
2019-02-15T17:38:41.057Z,13.70
2019-02-15T17:40:45.982Z,13.70
2019-02-15T17:42:50.429Z,13.70
2019-02-15T17:44:54.858Z,13.60
2019-02-15T17:46:59.244Z,13.60
2019-02-15T17:49:04.001Z,13.50
2019-02-15T17:51:08.371Z,13.40
2019-02-15T17:53:12.727Z,13.30
2019-02-15T17:55:17.137Z,13.20
2019-02-15T17:57:21.552Z,13.20
2019-02-15T17:59:25.926Z,13.10
2019-02-15T18:01:30.408Z,13.10
2019-02-15T18:03:34.802Z,13.00
2019-02-15T18:05:39.234Z,13.00
2019-02-15T18:07:43.719Z,13.00
2019-02-15T18:09:48.149Z,12.90
2019-02-15T18:11:52.583Z,12.80
2019-02-15T18:13:56.979Z,12.80
2019-02-15T18:16:01.346Z,12.80
2019-02-15T18:18:06.300Z,12.70
2019-02-15T18:20:10.945Z,12.70
2019-02-15T18:22:15.316Z,12.60
2019-02-15T18:24:19.671Z,12.60
2019-02-15T18:26:24.115Z,12.40
2019-02-15T18:28:28.497Z,12.10
2019-02-15T18:30:32.881Z,12.00
2019-02-15T18:32:37.262Z,11.90
2019-02-15T18:34:41.691Z,11.70
2019-02-15T18:36:46.102Z,11.60
2019-02-15T18:38:50.498Z,11.50
2019-02-15T18:40:54.840Z,11.40
2019-02-15T18:42:59.201Z,11.30
2019-02-15T18:45:03.667Z,11.20
2019-02-15T18:47:08.118Z,11.20
2019-02-15T18:49:19.160Z,11.20
2019-02-15T18:51:16.993Z,11.20
2019-02-15T18:55:37.712Z,11.20
2019-02-15T18:57:42.097Z,11.20
2019-02-15T18:59:46.619Z,11.20
2019-02-15T19:01:51.016Z,11.20
2019-02-15T19:03:55.487Z,11.10
2019-02-15T19:05:59.872Z,11.00
2019-02-15T19:08:04.379Z,11.10
2019-02-15T19:10:10.183Z,11.00
2019-02-15T19:12:14.563Z,11.00
2019-02-15T19:14:19.057Z,10.90
2019-02-15T19:16:23.494Z,10.80
2019-02-15T19:18:27.892Z,10.70
2019-02-15T19:20:32.302Z,10.60
2019-02-15T19:22:36.694Z,10.50
2019-02-15T19:24:41.121Z,10.40
2019-02-15T19:26:45.521Z,10.30
2019-02-15T19:28:49.970Z,10.20
2019-02-15T19:30:54.319Z,10.20
2019-02-15T19:32:58.710Z,10.10
2019-02-15T19:35:03.276Z,10.00
2019-02-15T19:37:07.800Z,10.00
2019-02-15T19:39:12.263Z,10.00
2019-02-15T19:41:16.684Z,10.00
2019-02-15T19:43:21.101Z,10.00
2019-02-15T19:45:25.549Z,9.90
2019-02-15T19:47:29.942Z,9.90
2019-02-15T19:49:38.724Z,9.80
2019-02-15T19:51:38.950Z,9.80
2019-02-15T19:53:43.378Z,9.80
2019-02-15T19:55:47.777Z,9.70
2019-02-15T19:57:52.266Z,9.60
2019-02-15T19:59:56.685Z,9.60
2019-02-15T20:02:01.115Z,9.50
2019-02-15T20:04:05.851Z,9.50
2019-02-15T20:06:10.340Z,9.50
2019-02-15T20:08:14.830Z,9.50
2019-02-15T20:10:20.774Z,9.40
2019-02-15T20:12:25.224Z,9.40
2019-02-15T20:14:29.670Z,9.40
2019-02-15T20:16:34.264Z,9.40
2019-02-15T20:18:38.694Z,9.40
2019-02-15T20:20:43.177Z,9.40
2019-02-15T20:22:47.902Z,9.40
2019-02-15T20:24:52.356Z,9.40
2019-02-15T20:26:56.804Z,9.50
2019-02-15T20:29:01.322Z,9.50
2019-02-15T20:31:05.813Z,9.50
2019-02-15T20:33:10.355Z,9.50
2019-02-15T20:35:14.859Z,9.50
2019-02-15T20:37:19.299Z,9.60
2019-02-15T20:39:23.801Z,9.50
2019-02-15T20:41:28.254Z,9.50
2019-02-15T20:43:32.757Z,9.50
2019-02-15T20:45:37.242Z,9.50
2019-02-15T20:47:41.680Z,9.50
2019-02-15T20:49:46.140Z,9.50
2019-02-15T20:51:50.540Z,9.50
2019-02-15T20:53:54.985Z,9.50
2019-02-15T20:55:59.439Z,9.40
2019-02-15T20:58:04.037Z,9.40
2019-02-15T21:00:11.281Z,9.40
2019-02-15T21:02:15.793Z,9.30
2019-02-15T21:04:20.214Z,9.30
2019-02-15T21:06:24.722Z,9.20
2019-02-15T21:08:29.325Z,9.20
2019-02-15T21:10:33.693Z,9.20
2019-02-15T21:12:39.624Z,9.20
2019-02-15T21:14:42.706Z,9.10
2019-02-15T21:16:47.100Z,9.00
2019-02-15T21:18:51.622Z,9.00
2019-02-15T21:20:56.401Z,8.90
2019-02-15T21:23:00.815Z,8.90
2019-02-15T21:25:05.765Z,8.80
2019-02-15T21:27:10.180Z,8.70
2019-02-15T21:29:14.620Z,8.70
2019-02-15T21:31:18.994Z,8.70
2019-02-15T21:33:23.356Z,8.50
2019-02-15T21:35:27.889Z,8.40
2019-02-15T21:37:32.270Z,8.30
2019-02-15T21:39:36.649Z,8.30
2019-02-15T21:41:41.154Z,8.20
2019-02-15T21:43:45.580Z,8.20
2019-02-15T21:45:50.053Z,8.10
2019-02-15T21:47:54.409Z,8.10
2019-02-15T21:49:58.950Z,8.10
2019-02-15T21:52:03.480Z,8.00
2019-02-15T21:54:07.823Z,7.90
2019-02-15T21:56:12.456Z,8.00
2019-02-15T21:58:17.998Z,8.00
2019-02-15T22:00:22.516Z,7.90
2019-02-15T22:02:26.870Z,7.90
2019-02-15T22:04:31.316Z,7.80
2019-02-15T22:06:35.701Z,7.80
2019-02-15T22:08:40.051Z,7.80
2019-02-15T22:10:44.434Z,7.80
2019-02-15T22:12:48.910Z,7.70
2019-02-15T22:14:54.251Z,7.70
2019-02-15T22:16:58.705Z,7.60
2019-02-15T22:19:03.373Z,7.50
2019-02-15T22:21:07.868Z,7.50
2019-02-15T22:23:12.272Z,7.50
2019-02-15T22:25:16.686Z,7.40
2019-02-15T22:27:21.004Z,7.40
2019-02-15T22:29:25.567Z,7.40
2019-02-15T22:31:29.941Z,7.20
2019-02-15T22:33:34.686Z,7.20
2019-02-15T22:35:39.082Z,7.20
2019-02-15T22:37:43.521Z,7.10
2019-02-15T22:39:47.923Z,7.10
2019-02-15T22:41:52.280Z,7.00
2019-02-15T22:43:56.691Z,7.10
2019-02-15T22:46:01.035Z,7.00
2019-02-15T22:48:05.455Z,6.90
2019-02-15T22:50:09.982Z,6.90
2019-02-15T22:52:15.147Z,6.80
2019-02-15T22:54:19.536Z,6.80
2019-02-15T22:56:23.965Z,6.70
2019-02-15T22:58:28.325Z,6.60
2019-02-15T23:00:42.665Z,6.60
2019-02-15T23:02:47.089Z,6.50
2019-02-15T23:04:51.466Z,6.50
2019-02-15T23:06:55.897Z,6.40
2019-02-15T23:09:00.987Z,6.40
2019-02-15T23:11:05.733Z,6.30
2019-02-15T23:13:10.329Z,6.30
2019-02-15T23:15:14.743Z,6.30
2019-02-15T23:17:19.179Z,6.20
2019-02-15T23:19:23.833Z,6.20
2019-02-15T23:21:28.209Z,6.20
2019-02-15T23:23:32.602Z,6.20
2019-02-15T23:25:37.007Z,6.10
2019-02-15T23:27:41.399Z,6.20
2019-02-15T23:29:45.778Z,6.10
2019-02-15T23:31:50.238Z,6.20
2019-02-15T23:33:54.599Z,6.20
2019-02-15T23:35:59.006Z,6.20
2019-02-15T23:38:03.467Z,6.10
2019-02-15T23:40:07.907Z,6.20
2019-02-15T23:42:12.359Z,6.10
2019-02-15T23:44:16.702Z,6.00
2019-02-15T23:46:21.133Z,6.00
2019-02-15T23:48:25.547Z,6.00
2019-02-15T23:50:29.905Z,6.00
2019-02-15T23:52:34.314Z,6.00
2019-02-15T23:54:38.735Z,6.00
2019-02-15T23:56:43.110Z,6.00
2019-02-15T23:58:47.598Z,6.00
